DGAA/ACC METAR and TAF weather

Enter ICAO airport designator
Station Type Date Time Source
DGAA METAR 2021/04/13 08:00 UTC NOAA

DGAA 130800Z 28004KT 240V300 8000 NSC 28/25 Q1013 NOSIG


Station Type Date Time Source
DGAA Decoded METAR 2021/04/13 08:00 UTC NOAA

Accra, Ghana (DGAA) 05-36N 000-10W 69M
Apr 13, 2021 - 04:00 AM EDT / 2021.04.13 0800 UTC
Wind: from the W (280 degrees) at 5 MPH (4 KT) (direction variable):0
Visibility: 4 mile(s):0
Temperature: 82 F (28 C)
Dew Point: 77 F (25 C)
Relative Humidity: 83%
Pressure (altimeter): 29.91 in. Hg (1013 hPa)
ob: DGAA 130800Z 28004KT 240V300 8000 NSC 28/25 Q1013 NOSIG
cycle: 8

Station Type Date Time Source
DGAA TAF 2021/04/13 06:21 UTC NOAA

TAF TAF DGAA 130500Z 1306/1412 27007KT 9999 FEW013 PROB40 1306/1309 8000
BECMG 1312/1314 19015KT SCT022
BECMG 1322/1324 CAVOK

Example: see airport list